Boston, Massachusetts
Current Conditions -  °F | °C
As of 11:54 AM on Friday 24 Oct 2014 (Local Time) from KBOS Reporting Station
Overcast Overcast  
Wind Chill: 50°   Ceiling: 1300
Heat Index: 50°   Visibility: 8mi
Dew Point: 47°   Wind: 10mph
Humidity: 89%   Direction: 310°NW
Pressure: 29.71"   Gusts: NA
Location:  42.36°N, 71.06°W
Report Text: KBOS 241554Z 31009KT 8SM FEW007 OVC013 10/08 A2971 RMK AO2 SLP058 T01000083
Loading
Personal Weather Stations






























Interactive Weather Map
Tropical Storm Tracking
New forecast layout! Learn more

10-Day Weather Forecast

Advertisements
Track Severe Weather on mobile